Time;durP1;ratioP1;P1;durP2;ratioP2;P2;SDS_P1;SDS_P2;PMS_P1;PMS_P2;Temp;Humidity;BMP_temperature;BMP_pressure;BME280_temperature;BME280_humidity;BME280_pressure;Samples;Min_cycle;Max_cycle;Signal;HPM_P1;HPM_P2
2023/12/05 00:00:23;;;;;;;15.57;13.20;;;;;21.80;98848.00;;;;2069799;28;20214;-54
2023/12/05 00:01:23;;;;;;;16.37;12.70;;;;;21.80;98845.00;;;;2069203;28;20240;-53
2023/12/05 00:02:24;;;;;;;13.63;12.23;;;;;21.80;98845.00;;;;2069800;28;20207;-54
2023/12/05 00:03:24;;;;;;;15.47;12.90;;;;;21.80;98845.00;;;;2068984;28;20296;-54
2023/12/05 00:04:25;;;;;;;12.10;10.80;;;;;21.80;98843.00;;;;2059880;28;20213;-54
2023/12/05 00:05:25;;;;;;;12.90;11.50;;;;;21.70;98847.00;;;;2068754;28;20206;-54
2023/12/05 00:06:25;;;;;;;14.53;12.80;;;;;21.70;98840.00;;;;2069928;28;20240;-55
2023/12/05 00:07:26;;;;;;;13.77;11.20;;;;;21.70;98837.00;;;;2069631;28;20222;-54
2023/12/05 00:08:26;;;;;;;12.57;10.80;;;;;21.70;98838.00;;;;2068270;28;20750;-54
2023/12/05 00:09:26;;;;;;;12.33;11.00;;;;;21.80;98836.00;;;;2060221;28;20241;-54
2023/12/05 00:10:27;;;;;;;13.00;10.90;;;;;21.80;98847.00;;;;2068871;28;20237;-54
2023/12/05 00:11:27;;;;;;;12.57;10.60;;;;;21.80;98841.00;;;;2069571;28;20232;-55
2023/12/05 00:12:28;;;;;;;14.07;10.90;;;;;21.70;98833.00;;;;2069322;28;20222;-54
2023/12/05 00:13:28;;;;;;;11.77;10.40;;;;;21.70;98839.00;;;;2069143;28;20225;-53
2023/12/05 00:14:28;;;;;;;12.30;11.00;;;;;21.70;98840.00;;;;2059393;28;20218;-54
2023/12/05 00:15:29;;;;;;;13.27;11.00;;;;;21.70;98829.00;;;;2069038;28;20226;-54
2023/12/05 00:16:29;;;;;;;13.00;10.80;;;;;21.70;98829.00;;;;2069819;28;20418;-55
2023/12/05 00:17:29;;;;;;;12.90;10.87;;;;;21.70;98831.00;;;;2068612;28;20214;-54
2023/12/05 00:18:30;;;;;;;13.07;11.37;;;;;21.70;98826.00;;;;2069453;28;20214;-54
2023/12/05 00:19:30;;;;;;;12.17;10.60;;;;;21.70;98826.00;;;;2059949;28;20277;-54
2023/12/05 00:20:30;;;;;;;13.17;9.80;;;;;21.70;98823.00;;;;2069036;28;20214;-54
2023/12/05 00:21:31;;;;;;;12.00;10.70;;;;;21.70;98823.00;;;;2069895;28;20224;-55
2023/12/05 00:22:31;;;;;;;10.83;9.67;;;;;21.70;98819.00;;;;2069113;28;20242;-54
2023/12/05 00:23:31;;;;;;;11.77;10.13;;;;;21.70;98833.00;;;;2069387;28;20217;-55
2023/12/05 00:24:32;;;;;;;11.10;9.90;;;;;21.70;98831.00;;;;2059022;28;20210;-54
2023/12/05 00:25:32;;;;;;;11.67;10.00;;;;;21.60;98835.00;;;;2069702;28;20298;-55
2023/12/05 00:26:34;;;;;;;10.10;9.10;;;;;21.60;98818.00;;;;2068514;28;20298;-55
2023/12/05 00:27:34;;;;;;;11.50;9.75;;;;;21.60;98826.00;;;;2068482;28;20767;-55
2023/12/05 00:28:35;;;;;;;10.10;8.93;;;;;21.60;98817.00;;;;2069740;28;20229;-55
2023/12/05 00:29:36;;;;;;;10.20;8.77;;;;;21.60;98823.00;;;;2059485;28;20261;-55
2023/12/05 00:30:37;;;;;;;9.35;8.30;;;;;21.60;98828.00;;;;2069815;28;20592;-54
2023/12/05 00:31:37;;;;;;;9.60;8.50;;;;;21.30;98823.00;;;;2069212;28;20236;-54
2023/12/05 00:32:37;;;;;;;11.23;9.13;;;;;21.60;98823.00;;;;2066228;28;20223;-54
2023/12/05 00:33:38;;;;;;;11.33;9.03;;;;;21.60;98821.00;;;;2067410;28;20276;-54
2023/12/05 00:34:38;;;;;;;9.63;8.27;;;;;21.60;98818.00;;;;2057671;28;20222;-54
2023/12/05 00:35:39;;;;;;;12.23;9.40;;;;;21.60;98824.00;;;;2070201;28;20276;-55
2023/12/05 00:36:39;;;;;;;11.33;8.73;;;;;21.60;98825.00;;;;2069186;28;20301;-55
2023/12/05 00:37:40;;;;;;;9.67;8.23;;;;;21.60;98828.00;;;;2068683;28;20456;-55
2023/12/05 00:38:40;;;;;;;9.63;8.57;;;;;21.60;98833.00;;;;2069827;28;20297;-53
2023/12/05 00:39:40;;;;;;;9.20;8.20;;;;;21.60;98820.00;;;;2051360;28;20218;-55
2023/12/05 00:40:41;;;;;;;9.47;8.50;;;;;21.60;98825.00;;;;2069502;28;20281;-54
2023/12/05 00:41:41;;;;;;;9.77;8.17;;;;;21.50;98824.00;;;;2069005;28;20681;-55
2023/12/05 00:42:42;;;;;;;10.73;8.97;;;;;21.60;98810.00;;;;2069663;28;20219;-54
2023/12/05 00:43:42;;;;;;;8.17;7.20;;;;;21.60;98823.00;;;;2069038;28;20218;-54
2023/12/05 00:44:43;;;;;;;7.67;6.83;;;;;21.60;98816.00;;;;2059953;28;20741;-55
2023/12/05 00:45:43;;;;;;;9.97;7.70;;;;;21.50;98823.00;;;;2069659;28;20218;-54
2023/12/05 00:46:44;;;;;;;8.77;7.67;;;;;21.50;98817.00;;;;2068862;28;20808;-54
2023/12/05 00:47:44;;;;;;;8.00;7.13;;;;;20.70;98812.00;;;;2068561;28;20582;-55
2023/12/05 00:48:44;;;;;;;9.37;7.80;;;;;21.50;98821.00;;;;2068970;28;20222;-53
2023/12/05 00:49:45;;;;;;;9.63;7.80;;;;;21.50;98816.00;;;;2060132;28;20217;-54
2023/12/05 00:50:45;;;;;;;8.17;7.03;;;;;21.50;98814.00;;;;2069610;28;20226;-54
2023/12/05 00:51:45;;;;;;;8.50;6.90;;;;;21.50;98819.00;;;;2067703;28;20229;-55
2023/12/05 00:52:46;;;;;;;8.93;7.17;;;;;21.50;98816.00;;;;2068649;28;20206;-55
2023/12/05 00:53:47;;;;;;;7.50;6.77;;;;;21.50;98815.00;;;;2068480;28;20372;-55
2023/12/05 00:54:47;;;;;;;9.10;7.20;;;;;21.50;98812.00;;;;2059904;28;20226;-55
2023/12/05 00:55:47;;;;;;;8.03;6.80;;;;;21.50;98813.00;;;;2069087;28;20465;-54
2023/12/05 00:56:48;;;;;;;7.00;6.00;;;;;21.50;98812.00;;;;2069894;28;20222;-55
2023/12/05 00:57:48;;;;;;;7.60;6.20;;;;;21.50;98815.00;;;;2068698;28;20214;-54
2023/12/05 00:58:48;;;;;;;7.03;6.33;;;;;21.50;98816.00;;;;2069174;28;20229;-55
2023/12/05 00:59:49;;;;;;;7.70;6.27;;;;;21.50;98813.00;;;;2059749;28;20230;-55
2023/12/05 01:00:49;;;;;;;6.93;5.80;;;;;21.50;98804.00;;;;2069133;28;20229;-53
2023/12/05 01:01:50;;;;;;;7.60;6.37;;;;;21.50;98632.00;;;;2069964;28;20261;-54
2023/12/05 01:02:50;;;;;;;8.50;6.70;;;;;21.40;98810.00;;;;2083729;28;20225;-54
2023/12/05 01:03:56;;;;;;;7.37;6.50;;;;;21.50;98812.00;;;;2085399;28;20223;-57
2023/12/05 01:04:56;;;;;;;6.78;5.82;;;;;21.40;98812.00;;;;2059628;28;20258;-55
2023/12/05 01:05:57;;;;;;;6.90;5.93;;;;;21.40;98813.00;;;;2069696;28;20269;-55
2023/12/05 01:06:57;;;;;;;7.93;6.33;;;;;21.40;98814.00;;;;2071287;28;20210;-54
2023/12/05 01:07:58;;;;;;;7.57;6.07;;;;;21.40;98812.00;;;;2069614;28;20739;-54
2023/12/05 01:08:58;;;;;;;8.37;5.93;;;;;21.40;98807.00;;;;2071047;28;20679;-53
2023/12/05 01:09:58;;;;;;;8.57;6.13;;;;;21.40;98811.00;;;;2060856;28;20233;-54
2023/12/05 01:10:59;;;;;;;6.27;5.10;;;;;21.40;98814.00;;;;2070836;28;20210;-55
2023/12/05 01:11:59;;;;;;;6.47;5.70;;;;;21.40;98815.00;;;;2070864;28;20602;-54
2023/12/05 01:13:02;;;;;;;5.83;5.13;;;;;21.40;98815.00;;;;2070783;28;20272;-55
2023/12/05 01:14:02;;;;;;;6.70;6.00;;;;;21.40;98803.00;;;;2070961;28;20206;-53
2023/12/05 01:15:02;;;;;;;6.60;5.73;;;;;21.40;98808.00;;;;2060424;28;20801;-53
2023/12/05 01:16:03;;;;;;;6.70;5.73;;;;;21.40;98809.00;;;;2069766;28;20634;-54
2023/12/05 01:17:04;;;;;;;6.30;5.17;;;;;21.40;98814.00;;;;2070434;28;20286;-55
2023/12/05 01:18:04;;;;;;;6.20;5.60;;;;;21.40;98816.00;;;;2070229;28;20457;-55
2023/12/05 01:19:04;;;;;;;6.03;5.07;;;;;21.40;98816.00;;;;2070676;28;20214;-54
2023/12/05 01:20:11;;;;;;;6.87;5.00;;;;;21.40;98805.00;;;;2056805;28;20229;-54
2023/12/05 01:21:11;;;;;;;6.32;5.32;;;;;21.40;98812.00;;;;2070847;28;20563;-53
2023/12/05 01:22:11;;;;;;;6.13;4.90;;;;;21.40;98811.00;;;;2070269;28;20222;-53
2023/12/05 01:23:12;;;;;;;6.80;5.30;;;;;21.40;98810.00;;;;2071007;28;20226;-53
2023/12/05 01:24:13;;;;;;;10.43;5.60;;;;;21.40;98815.00;;;;2069737;28;20218;-54
2023/12/05 01:25:13;;;;;;;6.33;5.00;;;;;21.40;98814.00;;;;2060849;28;20563;-54
2023/12/05 01:26:14;;;;;;;6.07;5.00;;;;;21.30;98811.00;;;;2071090;28;20214;-54
2023/12/05 01:27:15;;;;;;;6.05;5.43;;;;;21.40;98807.00;;;;2070787;28;20218;-54
2023/12/05 01:28:15;;;;;;;6.10;4.93;;;;;21.30;98810.00;;;;2070291;28;20675;-55
2023/12/05 01:29:16;;;;;;;6.13;4.90;;;;;21.30;98813.00;;;;2060653;28;20265;-56
2023/12/05 01:30:16;;;;;;;6.30;4.90;;;;;21.30;98814.00;;;;2071027;28;20222;-55
2023/12/05 01:31:16;;;;;;;5.97;5.13;;;;;21.30;98807.00;;;;2070420;28;20226;-55
2023/12/05 01:32:17;;;;;;;8.93;4.80;;;;;21.30;98817.00;;;;2071009;28;20218;-53
2023/12/05 01:33:17;;;;;;;6.17;5.47;;;;;21.30;98797.00;;;;2066909;28;20225;-53
2023/12/05 01:34:17;;;;;;;5.90;4.87;;;;;21.30;98796.00;;;;2060316;28;20280;-53
2023/12/05 01:35:18;;;;;;;4.90;4.10;;;;;21.30;98804.00;;;;2071029;28;20229;-54
2023/12/05 01:36:18;;;;;;;5.80;4.50;;;;;21.30;98795.00;;;;2070377;28;20222;-54
2023/12/05 01:37:18;;;;;;;5.93;4.70;;;;;21.30;98787.00;;;;2071044;28;20287;-55
2023/12/05 01:38:19;;;;;;;5.73;4.70;;;;;21.30;98798.00;;;;2069612;28;20218;-55
2023/12/05 01:39:20;;;;;;;5.47;4.53;;;;;21.30;98800.00;;;;2057612;28;20222;-54
2023/12/05 01:40:20;;;;;;;5.40;4.37;;;;;21.30;98802.00;;;;2069996;28;20677;-58
2023/12/05 01:41:20;;;;;;;4.37;3.93;;;;;21.30;98797.00;;;;2070246;28;20214;-56
2023/12/05 01:42:21;;;;;;;5.30;4.50;;;;;21.30;98797.00;;;;2070941;28;20410;-56
2023/12/05 01:43:21;;;;;;;4.87;4.00;;;;;21.30;98798.00;;;;2070690;28;20251;-56
2023/12/05 01:44:22;;;;;;;4.93;4.17;;;;;21.20;98799.00;;;;2060677;28;20226;-53
2023/12/05 01:45:22;;;;;;;5.03;4.20;;;;;21.30;98793.00;;;;2070569;28;20226;-55
2023/12/05 01:46:22;;;;;;;5.40;4.27;;;;;21.20;98798.00;;;;2070464;28;20251;-54
2023/12/05 01:47:23;;;;;;;5.00;4.13;;;;;21.20;98795.00;;;;2070140;28;20288;-54
2023/12/05 01:48:23;;;;;;;4.07;3.67;;;;;21.20;98758.00;;;;2068664;28;20238;-55
2023/12/05 01:49:24;;;;;;;4.70;4.20;;;;;21.20;98792.00;;;;2052344;28;20215;-53
2023/12/05 01:50:25;;;;;;;4.97;4.13;;;;;21.20;98787.00;;;;2061364;28;20253;-54
2023/12/05 01:51:26;;;;;;;5.40;4.45;;;;;21.20;98793.00;;;;2062148;28;20636;-55
2023/12/05 01:52:27;;;;;;;4.47;3.77;;;;;21.20;98791.00;;;;2069976;28;20217;-55
2023/12/05 01:53:27;;;;;;;4.43;3.60;;;;;21.20;98794.00;;;;2069443;28;21032;-54
2023/12/05 01:54:28;;;;;;;4.27;3.83;;;;;21.20;98796.00;;;;2059871;28;20214;-55
2023/12/05 01:55:28;;;;;;;4.10;3.70;;;;;21.20;98793.00;;;;2061340;28;20273;-53
2023/12/05 01:56:29;;;;;;;4.23;3.47;;;;;21.20;98792.00;;;;2069950;28;20830;-54
2023/12/05 01:57:29;;;;;;;5.10;4.10;;;;;21.20;98797.00;;;;2069776;28;20290;-54
2023/12/05 01:58:30;;;;;;;5.27;3.97;;;;;21.20;98800.00;;;;2069949;28;20210;-54
2023/12/05 01:59:30;;;;;;;4.20;3.60;;;;;21.20;98800.00;;;;2059846;28;20238;-53
2023/12/05 02:00:31;;;;;;;4.30;3.60;;;;;21.20;98794.00;;;;2069746;28;20214;-54
2023/12/05 02:01:31;;;;;;;4.60;3.80;;;;;21.20;98788.00;;;;2069556;28;20214;-53
2023/12/05 02:02:32;;;;;;;3.90;3.50;;;;;21.20;98796.00;;;;2069931;28;20210;-53
2023/12/05 02:03:32;;;;;;;5.40;4.10;;;;;21.20;98792.00;;;;2070828;28;20796;-55
2023/12/05 02:04:32;;;;;;;4.10;3.60;;;;;21.20;98783.00;;;;2059594;28;20214;-55
2023/12/05 02:05:32;;;;;;;4.83;4.07;;;;;21.10;98787.00;;;;2053821;28;20216;-55
2023/12/05 02:06:33;;;;;;;4.50;3.63;;;;;21.20;98783.00;;;;2061830;28;20245;-53
2023/12/05 02:07:33;;;;;;;3.57;3.23;;;;;21.20;98788.00;;;;2069149;28;20202;-54
2023/12/05 02:08:34;;;;;;;4.67;3.70;;;;;21.10;98785.00;;;;2070017;28;20295;-55
2023/12/05 02:09:35;;;;;;;3.80;3.40;;;;;21.10;98786.00;;;;2059478;28;20294;-54
2023/12/05 02:10:36;;;;;;;3.65;3.00;;;;;21.10;98787.00;;;;2070685;28;20805;-55
2023/12/05 02:11:36;;;;;;;4.67;3.50;;;;;21.10;98783.00;;;;2069630;28;20202;-55
2023/12/05 02:12:40;;;;;;;4.40;3.50;;;;;21.10;98778.00;;;;2070559;28;20738;-55
2023/12/05 02:13:43;;;;;;;4.85;3.85;;;;;21.10;98775.00;;;;2070447;28;20225;-54
2023/12/05 02:14:43;;;;;;;3.60;3.15;;;;;21.10;98785.00;;;;2060293;28;20214;-53
2023/12/05 02:15:43;;;;;;;3.80;2.83;;;;;21.10;98777.00;;;;2069904;28;20572;-55
2023/12/05 02:16:49;;;;;;;3.87;3.30;;;;;21.10;98778.00;;;;2069194;28;20614;-54
2023/12/05 02:18:10;;;;;;;3.70;2.90;;;;;21.10;98782.00;;;;2049697;28;20216;-54
2023/12/05 02:19:21;;;;;;;4.10;3.30;;;;;21.10;98784.00;;;;2063188;28;20357;-55
2023/12/05 02:20:34;;;;;;;3.97;3.13;;;;;21.10;98774.00;;;;2062274;28;20586;-53
2023/12/05 02:21:34;;;;;;;3.30;2.67;;;;;21.10;98777.00;;;;2069134;28;20664;-54
2023/12/05 02:22:56;;;;;;;3.43;2.87;;;;;21.10;98777.00;;;;2061766;28;20211;-55
2023/12/05 02:24:30;;;;;;;3.75;3.20;;;;;21.10;98824.00;;;;2058027;28;20643;-55
2023/12/05 02:25:52;;;;;;;3.92;3.15;;;;;21.10;98773.00;;;;2069343;28;20240;-55
2023/12/05 02:27:03;;;;;;;3.38;2.90;;;;;21.10;98778.00;;;;2069435;28;20220;-54
2023/12/05 02:28:03;;;;;;;3.85;3.03;;;;;21.10;98744.00;;;;2069087;28;20218;-54
2023/12/05 02:29:03;;;;;;;4.50;3.00;;;;;21.00;98809.00;;;;2069209;28;20745;-54
2023/12/05 02:30:04;;;;;;;3.40;2.90;;;;;21.00;98771.00;;;;2059723;28;20686;-55
2023/12/05 02:31:05;;;;;;;3.73;3.00;;;;;21.00;98766.00;;;;2067263;28;21040;-54
2023/12/05 02:32:05;;;;;;;5.68;3.20;;;;;21.00;98777.00;;;;2064347;28;20203;-55
2023/12/05 02:33:06;;;;;;;3.40;2.77;;;;;21.00;98766.00;;;;2069811;28;20203;-55
2023/12/05 02:34:06;;;;;;;4.30;3.30;;;;;21.00;98798.00;;;;2070320;28;20268;-53
2023/12/05 02:35:07;;;;;;;3.80;2.80;;;;;21.00;98769.00;;;;2060407;28;20709;-54
2023/12/05 02:36:20;;;;;;;3.10;2.80;;;;;21.00;98761.00;;;;2060790;28;20739;-54
2023/12/05 02:37:48;;;;;;;3.70;3.03;;;;;21.00;98766.00;;;;2048873;28;20212;-54
2023/12/05 02:39:31;;;;;;;3.10;2.67;;;;;21.00;98766.00;;;;2060992;28;20867;-55
2023/12/05 02:40:43;;;;;;;3.10;2.40;;;;;21.00;98757.00;;;;2055490;28;20222;-55
2023/12/05 02:41:45;;;;;;;4.40;3.13;;;;;21.00;98762.00;;;;2069272;28;20590;-55
2023/12/05 02:42:46;;;;;;;3.22;2.30;;;;;21.00;98761.00;;;;2062692;28;20616;-55
2023/12/05 02:43:56;;;;;;;2.88;2.35;;;;;21.00;98761.00;;;;2061881;28;20282;-54
2023/12/05 02:44:56;;;;;;;3.25;2.30;;;;;21.00;98756.00;;;;2044153;28;20291;-54
2023/12/05 02:45:56;;;;;;;2.83;2.50;;;;;21.00;98760.00;;;;2061940;28;20215;-54
2023/12/05 02:46:57;;;;;;;3.40;2.73;;;;;21.00;98590.00;;;;2074038;28;20251;-55
2023/12/05 02:47:57;;;;;;;3.30;2.40;;;;;21.00;98757.00;;;;2075932;28;20221;-53
2023/12/05 02:48:58;;;;;;;3.17;2.30;;;;;21.00;98759.00;;;;2069547;28;20610;-54
2023/12/05 02:49:58;;;;;;;2.87;2.30;;;;;21.00;98761.00;;;;2059210;28;20207;-54
2023/12/05 02:50:59;;;;;;;3.63;2.83;;;;;21.00;98771.00;;;;2070359;28;20222;-55
2023/12/05 02:51:59;;;;;;;3.47;2.70;;;;;21.00;98756.00;;;;2068990;28;20703;-53
2023/12/05 02:52:59;;;;;;;2.80;2.40;;;;;21.00;98761.00;;;;2069615;28;20296;-54
2023/12/05 02:54:01;;;;;;;3.50;2.80;;;;;20.90;98759.00;;;;2070370;28;20222;-54
2023/12/05 02:55:02;;;;;;;3.92;2.60;;;;;21.00;98759.00;;;;2059866;28;20210;-55
2023/12/05 02:56:02;;;;;;;2.77;2.30;;;;;20.90;98751.00;;;;2068859;28;20222;-55
2023/12/05 02:57:03;;;;;;;2.70;2.13;;;;;21.00;98755.00;;;;2067404;28;20691;-54
2023/12/05 02:58:03;;;;;;;2.67;2.23;;;;;21.00;98759.00;;;;2069257;28;20225;-55
2023/12/05 02:59:04;;;;;;;3.20;2.43;;;;;20.90;98754.00;;;;2070143;28;20264;-54
2023/12/05 03:00:06;;;;;;;2.90;2.50;;;;;20.90;98759.00;;;;2062623;28;20230;-54
2023/12/05 03:01:06;;;;;;;3.05;2.45;;;;;20.90;98754.00;;;;2077714;28;20304;-54
2023/12/05 03:02:07;;;;;;;3.20;2.40;;;;;20.90;98751.00;;;;2069869;28;20252;-55
2023/12/05 03:03:07;;;;;;;2.80;2.23;;;;;20.90;98759.00;;;;2070165;28;20273;-55
2023/12/05 03:04:07;;;;;;;5.27;2.70;;;;;20.90;98767.00;;;;2069170;28;20245;-54
2023/12/05 03:05:08;;;;;;;3.67;2.70;;;;;20.20;98758.00;;;;2060309;28;20290;-53
2023/12/05 03:06:09;;;;;;;2.33;2.00;;;;;20.90;98764.00;;;;2070035;28;20207;-53
2023/12/05 03:07:09;;;;;;;2.70;2.23;;;;;20.90;98759.00;;;;2069622;28;20248;-54
2023/12/05 03:08:09;;;;;;;4.37;2.70;;;;;20.90;98763.00;;;;2069468;28;20241;-55
2023/12/05 03:09:10;;;;;;;2.63;2.20;;;;;20.90;98766.00;;;;2069106;28;20237;-54
2023/12/05 03:10:10;;;;;;;2.63;2.17;;;;;20.10;98762.00;;;;2060700;28;20221;-54
2023/12/05 03:11:10;;;;;;;3.17;2.10;;;;;20.90;98761.00;;;;2070498;28;20218;-53
2023/12/05 03:12:11;;;;;;;2.53;2.10;;;;;20.90;98765.00;;;;2069587;28;20225;-54
2023/12/05 03:13:11;;;;;;;2.60;2.03;;;;;20.90;98763.00;;;;2070386;28;20238;-54
2023/12/05 03:14:12;;;;;;;2.77;2.10;;;;;20.90;98753.00;;;;2069330;28;20215;-54
2023/12/05 03:15:13;;;;;;;3.13;2.00;;;;;20.90;98763.00;;;;2060591;28;20214;-54
2023/12/05 03:16:13;;;;;;;3.40;2.10;;;;;20.90;98769.00;;;;2069734;28;20226;-55
2023/12/05 03:17:13;;;;;;;2.27;1.90;;;;;20.90;98769.00;;;;2068856;28;20679;-55
2023/12/05 03:18:14;;;;;;;2.63;2.00;;;;;20.90;98767.00;;;;2069293;28;20924;-53
2023/12/05 03:19:14;;;;;;;2.30;1.97;;;;;20.90;98763.00;;;;2065588;28;20222;-56
2023/12/05 03:20:15;;;;;;;2.47;1.83;;;;;20.90;98763.00;;;;2065513;28;20221;-53
2023/12/05 03:21:17;;;;;;;3.53;2.43;;;;;20.90;98764.00;;;;2069582;28;20213;-54
2023/12/05 03:22:17;;;;;;;3.05;2.00;;;;;20.90;98763.00;;;;2070188;28;20786;-53
2023/12/05 03:23:18;;;;;;;2.80;1.90;;;;;20.90;98763.00;;;;2069287;28;20229;-54
2023/12/05 03:24:18;;;;;;;2.73;1.80;;;;;20.90;98754.00;;;;2059195;28;20643;-55
2023/12/05 03:25:18;;;;;;;2.60;2.07;;;;;20.90;98747.00;;;;2070506;28;20240;-55
2023/12/05 03:26:22;;;;;;;2.53;2.03;;;;;20.80;98772.00;;;;2068920;28;20214;-55
2023/12/05 03:27:23;;;;;;;2.53;1.95;;;;;20.80;98751.00;;;;2069284;28;20222;-54
2023/12/05 03:28:23;;;;;;;2.97;2.10;;;;;20.80;98757.00;;;;2068510;28;20218;-54
2023/12/05 03:29:24;;;;;;;2.30;1.83;;;;;20.80;98749.00;;;;2060049;28;20714;-54
2023/12/05 03:30:24;;;;;;;2.47;2.03;;;;;20.80;98754.00;;;;2070102;28;20250;-54
2023/12/05 03:31:24;;;;;;;2.57;2.00;;;;;20.80;98755.00;;;;2069554;28;20224;-54
2023/12/05 03:32:24;;;;;;;2.40;1.90;;;;;20.80;98750.00;;;;2069625;28;20214;-57
2023/12/05 03:33:25;;;;;;;2.60;2.00;;;;;20.80;98753.00;;;;2065866;28;20723;-56
2023/12/05 03:34:25;;;;;;;2.40;1.80;;;;;20.80;98752.00;;;;2060451;28;20210;-55
2023/12/05 03:35:25;;;;;;;2.03;1.60;;;;;20.80;98745.00;;;;2069475;28;20210;-53
2023/12/05 03:36:26;;;;;;;2.30;1.90;;;;;20.80;98752.00;;;;2070232;28;20242;-54
2023/12/05 03:37:26;;;;;;;2.40;2.03;;;;;20.80;98750.00;;;;2069723;28;20219;-54
2023/12/05 03:38:26;;;;;;;2.33;1.80;;;;;20.80;98750.00;;;;2068150;28;20218;-55
2023/12/05 03:39:27;;;;;;;2.80;2.10;;;;;20.80;98747.00;;;;2060547;28;20224;-55
2023/12/05 03:40:27;;;;;;;2.03;1.73;;;;;20.80;98751.00;;;;2069229;28;20256;-55
2023/12/05 03:41:28;;;;;;;2.60;1.80;;;;;20.80;98749.00;;;;2069790;28;20218;-53
2023/12/05 03:42:28;;;;;;;2.40;2.00;;;;;20.80;98754.00;;;;2069302;28;20248;-54
2023/12/05 03:43:28;;;;;;;2.53;1.80;;;;;20.80;98751.00;;;;2070131;28;20218;-54
2023/12/05 03:44:29;;;;;;;2.93;2.00;;;;;20.80;98751.00;;;;2059895;28;21050;-54
2023/12/05 03:45:29;;;;;;;2.37;1.50;;;;;20.80;98751.00;;;;2069405;28;21028;-54
2023/12/05 03:46:30;;;;;;;2.43;1.90;;;;;20.80;98749.00;;;;2070065;28;20216;-55
2023/12/05 03:47:30;;;;;;;2.13;1.80;;;;;20.80;98750.00;;;;2069483;28;20214;-53
2023/12/05 03:48:31;;;;;;;2.90;1.57;;;;;20.80;98747.00;;;;2069054;28;20578;-54
2023/12/05 03:49:31;;;;;;;2.00;1.70;;;;;20.80;98748.00;;;;2060177;28;20222;-54
2023/12/05 03:50:31;;;;;;;3.83;2.00;;;;;20.80;98753.00;;;;2069733;28;20669;-55
2023/12/05 03:51:32;;;;;;;2.97;1.70;;;;;20.80;98760.00;;;;2070137;28;20683;-55
2023/12/05 03:52:32;;;;;;;2.00;1.67;;;;;20.70;98749.00;;;;2063382;28;20748;-54
2023/12/05 03:53:32;;;;;;;1.90;1.60;;;;;20.80;98743.00;;;;2077096;28;20217;-55
2023/12/05 03:54:33;;;;;;;2.10;1.40;;;;;20.80;98745.00;;;;2062410;28;20230;-54
2023/12/05 03:55:34;;;;;;;1.90;1.50;;;;;20.70;98741.00;;;;2069902;28;20224;-53
2023/12/05 03:56:34;;;;;;;2.17;1.75;;;;;20.80;98748.00;;;;2070078;28;20225;-55
2023/12/05 03:57:34;;;;;;;1.97;1.30;;;;;20.80;98747.00;;;;2068456;28;20712;-54
2023/12/05 03:58:35;;;;;;;2.30;1.60;;;;;20.80;98751.00;;;;2070055;28;20210;-54
2023/12/05 03:59:35;;;;;;;1.87;1.53;;;;;20.80;98750.00;;;;2059852;28;20255;-55
2023/12/05 04:00:35;;;;;;;1.87;1.20;;;;;20.70;98747.00;;;;2069094;28;20250;-54
2023/12/05 04:01:36;;;;;;;1.87;1.53;;;;;20.70;98748.00;;;;2069584;28;20316;-54
2023/12/05 04:02:36;;;;;;;2.23;1.20;;;;;20.70;98753.00;;;;2068621;28;20202;-55
2023/12/05 04:03:36;;;;;;;1.90;1.27;;;;;20.80;98746.00;;;;2067557;28;20237;-55
2023/12/05 04:04:37;;;;;;;1.90;1.23;;;;;20.70;98771.00;;;;2057369;28;20581;-55
2023/12/05 04:05:38;;;;;;;2.60;1.63;;;;;20.70;98750.00;;;;2067937;28;20823;-54
2023/12/05 04:06:39;;;;;;;1.80;1.10;;;;;20.70;98749.00;;;;2068883;28;20228;-54
2023/12/05 04:07:40;;;;;;;2.37;1.50;;;;;20.70;98752.00;;;;2068278;28;20206;-54
2023/12/05 04:08:40;;;;;;;2.50;1.67;;;;;20.70;98750.00;;;;2068884;28;20214;-55
2023/12/05 04:09:41;;;;;;;2.00;1.60;;;;;20.70;98747.00;;;;2059982;28;20233;-55
2023/12/05 04:10:41;;;;;;;2.00;1.40;;;;;20.70;98750.00;;;;2069688;28;20210;-55
2023/12/05 04:11:41;;;;;;;2.80;1.87;;;;;20.70;98748.00;;;;2069142;28;20206;-55
2023/12/05 04:12:42;;;;;;;1.90;1.40;;;;;20.70;98750.00;;;;2069844;28;20301;-53
2023/12/05 04:13:42;;;;;;;2.43;1.63;;;;;20.70;98749.00;;;;2068892;28;20206;-54
2023/12/05 04:14:43;;;;;;;1.87;1.37;;;;;20.70;98745.00;;;;2059068;28;20256;-54
2023/12/05 04:15:43;;;;;;;2.30;1.50;;;;;20.70;98752.00;;;;2069454;28;20556;-55
2023/12/05 04:16:43;;;;;;;2.17;1.37;;;;;20.70;98753.00;;;;2069456;28;20699;-55
2023/12/05 04:17:44;;;;;;;2.07;1.70;;;;;20.70;98752.00;;;;2068679;28;20213;-55
2023/12/05 04:18:44;;;;;;;1.87;1.33;;;;;20.70;98748.00;;;;2069164;28;20254;-53
2023/12/05 04:19:44;;;;;;;1.90;1.40;;;;;20.70;98747.00;;;;2059534;28;20221;-55
2023/12/05 04:20:45;;;;;;;1.80;1.40;;;;;20.70;98740.00;;;;2068813;28;20210;-55
2023/12/05 04:21:45;;;;;;;3.30;1.40;;;;;20.70;98742.00;;;;2069811;28;20238;-55
2023/12/05 04:22:45;;;;;;;2.87;1.60;;;;;20.70;98741.00;;;;2069532;28;20222;-55
2023/12/05 04:23:46;;;;;;;2.27;1.50;;;;;20.70;98749.00;;;;2068810;28;20218;-55
2023/12/05 04:24:46;;;;;;;2.30;1.53;;;;;20.70;98746.00;;;;2059819;28;20272;-54
2023/12/05 04:25:46;;;;;;;1.93;1.40;;;;;20.70;98745.00;;;;2068153;28;20658;-54
2023/12/05 04:26:47;;;;;;;1.63;1.33;;;;;20.70;98747.00;;;;2069604;28;20232;-54
2023/12/05 04:27:48;;;;;;;2.40;1.43;;;;;20.70;98735.00;;;;2068718;28;20218;-55
2023/12/05 04:28:48;;;;;;;1.90;1.60;;;;;20.60;98741.00;;;;2068977;28;20210;-55
2023/12/05 04:29:49;;;;;;;2.03;1.17;;;;;20.60;98741.00;;;;2059566;28;20449;-53
2023/12/05 04:30:49;;;;;;;1.53;1.10;;;;;20.60;98736.00;;;;2068865;28;20218;-54
2023/12/05 04:31:50;;;;;;;2.00;1.40;;;;;20.60;98745.00;;;;2069460;28;20225;-54
2023/12/05 04:32:50;;;;;;;1.90;1.27;;;;;20.60;98747.00;;;;2067638;28;20242;-53
2023/12/05 04:33:50;;;;;;;1.80;1.20;;;;;20.60;98746.00;;;;2068702;28;20635;-55
2023/12/05 04:34:51;;;;;;;2.30;1.67;;;;;20.60;98748.00;;;;2055546;28;20572;-53
2023/12/05 04:35:51;;;;;;;2.07;1.50;;;;;19.90;98742.00;;;;2068709;28;20222;-55
2023/12/05 04:36:52;;;;;;;2.20;1.40;;;;;20.60;98744.00;;;;2069504;28;20218;-54
2023/12/05 04:37:52;;;;;;;1.83;1.30;;;;;20.60;98748.00;;;;2066040;28;20946;-55
2023/12/05 04:38:52;;;;;;;2.17;1.47;;;;;20.60;98747.00;;;;2069515;28;20833;-55
2023/12/05 04:39:53;;;;;;;2.27;1.43;;;;;20.60;98750.00;;;;2058865;28;20218;-54
2023/12/05 04:40:53;;;;;;;1.87;1.43;;;;;20.60;98734.00;;;;2070841;28;20220;-54
2023/12/05 04:41:54;;;;;;;2.23;1.57;;;;;20.60;98737.00;;;;2070363;28;20210;-53
2023/12/05 04:42:54;;;;;;;1.90;1.37;;;;;20.60;98746.00;;;;2067828;28;20260;-55
2023/12/05 04:43:54;;;;;;;2.60;1.40;;;;;20.60;98735.00;;;;2069200;28;20560;-55
2023/12/05 04:44:54;;;;;;;1.80;1.30;;;;;20.60;98745.00;;;;2060355;28;20830;-55
2023/12/05 04:45:55;;;;;;;2.00;1.40;;;;;20.60;98740.00;;;;2068861;28;20674;-55
2023/12/05 04:46:57;;;;;;;1.80;1.23;;;;;20.60;98736.00;;;;2070629;28;20734;-55
2023/12/05 04:47:57;;;;;;;1.90;1.35;;;;;20.60;98746.00;;;;2068789;28;20214;-55
2023/12/05 04:48:57;;;;;;;1.77;1.33;;;;;20.60;98749.00;;;;2070717;28;20214;-53
2023/12/05 04:49:58;;;;;;;2.10;1.40;;;;;20.60;98743.00;;;;2060714;28;20214;-54
2023/12/05 04:50:58;;;;;;;2.13;1.13;;;;;20.60;98743.00;;;;2069951;28;20295;-55
2023/12/05 04:51:58;;;;;;;1.90;1.17;;;;;20.60;98746.00;;;;2070056;28;20214;-55
2023/12/05 04:52:59;;;;;;;1.93;1.30;;;;;20.60;98741.00;;;;2069830;28;20222;-54
2023/12/05 04:53:59;;;;;;;2.00;1.40;;;;;20.60;98744.00;;;;2068151;28;20637;-54
2023/12/05 04:55:00;;;;;;;1.90;1.17;;;;;20.60;98741.00;;;;2058602;28;20228;-56
2023/12/05 04:56:00;;;;;;;2.00;1.27;;;;;20.60;98745.00;;;;2070787;28;20634;-54
2023/12/05 04:57:00;;;;;;;2.10;1.40;;;;;20.60;98749.00;;;;2068300;28;20719;-58
2023/12/05 04:58:01;;;;;;;2.10;1.47;;;;;20.60;98752.00;;;;2068214;28;20590;-57
2023/12/05 04:59:02;;;;;;;1.77;1.20;;;;;20.60;98752.00;;;;2070748;28;20678;-55
2023/12/05 05:00:03;;;;;;;2.00;1.23;;;;;20.60;98741.00;;;;2053979;28;20750;-53
2023/12/05 05:01:03;;;;;;;2.10;1.30;;;;;20.60;98712.00;;;;2070536;28;20564;-54
2023/12/05 05:02:04;;;;;;;2.50;1.23;;;;;20.50;98749.00;;;;2066440;28;20210;-56
2023/12/05 05:03:04;;;;;;;1.80;1.30;;;;;20.50;98752.00;;;;2070179;28;20221;-54
2023/12/05 05:04:04;;;;;;;2.83;1.50;;;;;20.50;98755.00;;;;2070385;28;20252;-54
2023/12/05 05:05:05;;;;;;;1.80;1.37;;;;;20.50;98753.00;;;;2061321;28;20210;-55
2023/12/05 05:06:05;;;;;;;1.90;1.63;;;;;20.50;98749.00;;;;2070331;28;20213;-55